Time;durP1;ratioP1;P1;durP2;ratioP2;P2;SDS_P1;SDS_P2;PMS_P1;PMS_P2;Temp;Humidity;BMP_temperature;BMP_pressure;BME280_temperature;BME280_humidity;BME280_pressure;Samples;Min_cycle;Max_cycle;Signal;HPM_P1;HPM_P2
2022/05/22 00:01:11;;;;;;;6.05;3.63;;;26.70;99.90;;;;;;4108573;28;20078;-66
2022/05/22 00:03:28;;;;;;;11.95;4.38;;;26.70;99.90;;;;;;4116634;28;20537;-66
2022/05/22 00:05:33;;;;;;;5.75;3.95;;;26.70;99.90;;;;;;4148427;28;20464;-66
2022/05/22 00:07:41;;;;;;;9.40;5.03;;;26.80;99.90;;;;;;4148340;28;20046;-66
2022/05/22 00:09:46;;;;;;;4.80;3.60;;;26.80;99.90;;;;;;4163452;28;20128;-67
2022/05/22 00:12:01;;;;;;;6.13;4.10;;;26.80;99.90;;;;;;4148453;28;20042;-67
2022/05/22 00:14:06;;;;;;;6.68;4.07;;;26.90;99.90;;;;;;4147429;28;20045;-67
2022/05/22 00:18:29;;;;;;;6.13;3.78;;;27.00;99.90;;;;;;4145646;28;20053;-67
2022/05/22 00:20:44;;;;;;;7.63;3.58;;;27.10;99.90;;;;;;4146026;28;20103;-67
2022/05/22 00:22:53;;;;;;;5.82;3.17;;;27.20;99.90;;;;;;4145823;28;20042;-67
2022/05/22 00:24:59;;;;;;;6.95;3.45;;;27.20;99.90;;;;;;4145713;28;20046;-67
2022/05/22 00:27:04;;;;;;;7.88;3.50;;;27.20;99.90;;;;;;4147655;28;20432;-67
2022/05/22 00:29:11;;;;;;;7.03;3.42;;;27.30;99.90;;;;;;4145574;28;20045;-67
2022/05/22 00:31:16;;;;;;;5.10;3.40;;;27.30;99.90;;;;;;4146686;28;20066;-67
2022/05/22 00:33:22;;;;;;;8.82;3.22;;;27.30;99.90;;;;;;4147657;28;20065;-67
2022/05/22 00:35:28;;;;;;;5.28;2.95;;;27.40;99.90;;;;;;4145905;28;20141;-67
2022/05/22 00:37:36;;;;;;;5.90;3.40;;;27.50;99.90;;;;;;4146790;28;20053;-67
2022/05/22 00:39:43;;;;;;;4.40;2.83;;;27.60;99.90;;;;;;4131569;28;20113;-66
2022/05/22 00:41:54;;;;;;;5.03;2.83;;;27.60;99.90;;;;;;4147443;28;20744;-66
2022/05/22 00:44:01;;;;;;;9.20;3.22;;;27.60;99.90;;;;;;4114858;28;20043;-66
2022/05/22 00:46:11;;;;;;;7.20;3.33;;;27.70;99.90;;;;;;4129944;28;20899;-67
2022/05/22 00:48:16;;;;;;;5.40;3.03;;;27.60;99.90;;;;;;4130398;28;20042;-67
2022/05/22 00:50:26;;;;;;;6.20;3.00;;;27.60;99.90;;;;;;4146608;28;20386;-66
2022/05/22 00:52:44;;;;;;;5.65;3.47;;;27.60;99.90;;;;;;4131074;28;20088;-66
2022/05/22 00:54:55;;;;;;;5.82;2.95;;;27.60;99.90;;;;;;4147773;28;20524;-66
2022/05/22 00:57:23;;;;;;;7.63;3.25;;;27.70;99.90;;;;;;4147741;28;20046;-66
2022/05/22 00:59:43;;;;;;;6.60;3.20;;;27.60;99.90;;;;;;4146696;28;20050;-66
2022/05/22 01:02:02;;;;;;;6.82;3.30;;;27.70;99.90;;;;;;4133144;28;20129;-66
2022/05/22 01:04:20;;;;;;;8.60;2.97;;;27.70;99.90;;;;;;4114409;28;20066;-66
2022/05/22 01:06:47;;;;;;;9.23;2.90;;;27.70;99.90;;;;;;4104392;28;20544;-65
2022/05/22 01:08:55;;;;;;;7.13;3.03;;;27.70;99.90;;;;;;4126919;28;20065;-65
2022/05/22 01:11:06;;;;;;;6.00;3.30;;;27.80;99.90;;;;;;4125986;28;20049;-65
2022/05/22 01:13:30;;;;;;;6.07;2.97;;;27.80;99.90;;;;;;4128976;28;20052;-65
2022/05/22 01:15:39;;;;;;;6.13;2.60;;;27.90;99.90;;;;;;4132320;28;20108;-65
2022/05/22 01:17:55;;;;;;;6.22;2.90;;;27.90;99.90;;;;;;4132679;28;20070;-65
2022/05/22 01:20:07;;;;;;;6.40;3.35;;;27.90;99.90;;;;;;4109060;28;20054;-65
2022/05/22 01:22:12;;;;;;;7.15;3.25;;;27.90;99.90;;;;;;4142489;28;20437;-66
2022/05/22 01:24:28;;;;;;;6.97;3.17;;;27.90;99.90;;;;;;4113652;28;20777;-66
2022/05/22 01:26:42;;;;;;;6.97;3.50;;;27.90;99.90;;;;;;4131492;28;20133;-66
2022/05/22 01:29:00;;;;;;;5.32;3.47;;;27.90;99.90;;;;;;4125932;28;20577;-66
2022/05/22 01:31:08;;;;;;;8.00;3.30;;;27.90;99.90;;;;;;4110251;28;20109;-65
2022/05/22 01:33:15;;;;;;;4.65;2.70;;;28.00;99.90;;;;;;4125362;28;20645;-65
2022/05/22 01:35:22;;;;;;;8.05;3.40;;;28.00;99.90;;;;;;4137212;28;20455;-68
2022/05/22 01:37:48;;;;;;;7.57;2.90;;;28.10;99.90;;;;;;4134062;28;20054;-65
2022/05/22 01:39:59;;;;;;;6.22;3.40;;;28.20;99.90;;;;;;4127012;28;20072;-67
2022/05/22 01:42:06;;;;;;;7.28;3.35;;;28.30;99.90;;;;;;4142481;28;20054;-67
2022/05/22 01:44:11;;;;;;;8.75;3.42;;;28.30;99.90;;;;;;4143014;28;20093;-67
2022/05/22 01:46:17;;;;;;;9.65;3.65;;;28.40;99.90;;;;;;4142767;28;20518;-67
2022/05/22 01:48:37;;;;;;;8.95;3.40;;;28.30;99.90;;;;;;4143352;28;20152;-68
2022/05/22 01:50:49;;;;;;;8.40;3.58;;;28.20;99.90;;;;;;4143575;28;20044;-67
2022/05/22 01:52:55;;;;;;;7.03;4.05;;;28.20;99.90;;;;;;4144529;28;20037;-68
2022/05/22 01:55:03;;;;;;;16.60;9.15;;;28.20;99.90;;;;;;4143348;28;20038;-68
2022/05/22 01:57:29;;;;;;;14.50;8.32;;;28.10;99.90;;;;;;4131725;28;20069;-68
2022/05/22 01:59:44;;;;;;;19.45;14.52;;;28.00;99.90;;;;;;4145076;28;20048;-69
2022/05/22 02:02:10;;;;;;;13.20;7.35;;;28.00;99.90;;;;;;4143727;28;20053;-68
2022/05/22 02:04:18;;;;;;;28.63;14.32;;;27.80;99.90;;;;;;4144236;28;20129;-68
2022/05/22 02:09:10;;;;;;;18.10;9.20;;;27.70;99.90;;;;;;4144840;28;20062;-67
2022/05/22 02:11:29;;;;;;;9.05;5.32;;;27.70;99.90;;;;;;4144820;28;20505;-67
2022/05/22 02:13:52;;;;;;;10.70;5.18;;;27.60;99.90;;;;;;4145114;28;20030;-68
2022/05/22 02:16:12;;;;;;;8.57;4.38;;;27.60;99.90;;;;;;4144830;28;20464;-67
2022/05/22 02:18:22;;;;;;;6.38;4.50;;;27.70;99.90;;;;;;4145059;28;20050;-66
2022/05/22 02:20:32;;;;;;;9.98;4.43;;;27.60;99.90;;;;;;4129159;28;20132;-67
2022/05/22 02:22:43;;;;;;;9.65;5.40;;;27.60;99.90;;;;;;4128485;28;20046;-67
2022/05/22 02:24:59;;;;;;;8.80;4.45;;;27.70;99.90;;;;;;4130619;28;20433;-67
2022/05/22 02:27:17;;;;;;;8.98;4.13;;;27.70;99.90;;;;;;4145592;28;20470;-64
2022/05/22 02:29:35;;;;;;;9.98;3.92;;;27.60;99.90;;;;;;4145617;28;20049;-68
2022/05/22 02:31:48;;;;;;;11.00;4.43;;;27.70;99.90;;;;;;4113791;28;20037;-68
2022/05/22 02:33:58;;;;;;;8.27;4.05;;;27.70;99.90;;;;;;4142773;28;20453;-69
2022/05/22 02:36:06;;;;;;;8.20;3.85;;;27.70;99.90;;;;;;4144467;28;20046;-67
2022/05/22 02:38:16;;;;;;;10.20;4.13;;;27.70;99.90;;;;;;4160629;28;20132;-67
2022/05/22 02:40:27;;;;;;;7.75;4.03;;;27.70;99.90;;;;;;4145120;28;20105;-67
2022/05/22 02:42:40;;;;;;;9.18;3.92;;;27.80;99.90;;;;;;4117168;28;20473;-67
2022/05/22 02:44:55;;;;;;;7.45;3.65;;;27.70;99.90;;;;;;4120149;28;20150;-66
2022/05/22 02:47:15;;;;;;;18.60;4.53;;;27.80;99.90;;;;;;4134712;28;20050;-67
2022/05/22 02:49:33;;;;;;;8.32;3.97;;;27.80;99.90;;;;;;4148433;28;20506;-67
2022/05/22 02:51:49;;;;;;;9.93;4.00;;;27.90;99.90;;;;;;4134453;28;20046;-68
2022/05/22 02:53:56;;;;;;;12.70;4.45;;;28.00;99.90;;;;;;4148529;28;20050;-67
2022/05/22 02:56:40;;;;;;;;;;;28.00;99.90;;;;;;4148856;28;20054;-68
2022/05/22 02:58:48;;;;;;;6.55;4.30;;;27.90;99.90;;;;;;4148351;28;19988;-68
2022/05/22 03:01:01;;;;;;;6.47;3.50;;;27.90;99.90;;;;;;4133211;28;20401;-68
2022/05/22 03:03:21;;;;;;;6.90;3.60;;;27.90;99.90;;;;;;4149988;28;20060;-67
2022/05/22 03:08:05;;;;;;;7.20;4.13;;;27.90;99.90;;;;;;4148564;28;20053;-68
2022/05/22 03:10:17;;;;;;;8.18;3.97;;;27.80;99.90;;;;;;4148080;28;20046;-68
2022/05/22 03:12:24;;;;;;;8.52;3.50;;;27.80;99.90;;;;;;4148259;28;20052;-68
2022/05/22 03:14:34;;;;;;;9.90;4.00;;;27.80;99.90;;;;;;4148043;28;20520;-67
2022/05/22 03:16:43;;;;;;;8.15;3.83;;;27.80;99.90;;;;;;4147696;28;20049;-67
2022/05/22 03:19:13;;;;;;;7.88;3.90;;;27.70;99.90;;;;;;4148749;28;20053;-67
2022/05/22 03:21:21;;;;;;;9.35;3.78;;;27.80;99.90;;;;;;4148324;28;20128;-69
2022/05/22 03:23:34;;;;;;;7.30;3.50;;;27.80;99.90;;;;;;4148290;28;20042;-69
2022/05/22 03:25:51;;;;;;;11.00;3.75;;;27.80;99.90;;;;;;4147492;28;20042;-67
2022/05/22 03:27:57;;;;;;;8.25;4.35;;;27.90;99.90;;;;;;4147367;28;20141;-67
2022/05/22 03:30:09;;;;;;;7.75;4.10;;;27.90;99.90;;;;;;4146537;28;20042;-67
2022/05/22 03:32:17;;;;;;;10.52;4.68;;;27.90;99.90;;;;;;4147281;28;20452;-67
2022/05/22 03:34:32;;;;;;;9.23;4.43;;;28.00;99.90;;;;;;4144357;28;20436;-67
2022/05/22 03:36:48;;;;;;;8.35;4.20;;;28.00;99.90;;;;;;4146596;28;20125;-67
2022/05/22 03:39:04;;;;;;;10.00;5.75;;;28.00;99.90;;;;;;4132929;28;20064;-67
2022/05/22 03:41:29;;;;;;;15.27;8.38;;;28.10;99.90;;;;;;4133450;28;20042;-68
2022/05/22 03:43:35;;;;;;;15.02;9.77;;;28.10;99.90;;;;;;4132362;28;20097;-68
2022/05/22 03:45:52;;;;;;;22.50;10.93;;;28.20;99.90;;;;;;4131092;28;20058;-68
2022/05/22 03:48:04;;;;;;;8.77;5.38;;;28.30;99.90;;;;;;4130912;28;20046;-67
2022/05/22 04:44:05;;;;;;;8.23;4.38;;;29.40;99.90;;;;;;4145475;28;20050;-67
2022/05/22 04:46:12;;;;;;;8.85;4.78;;;29.50;99.90;;;;;;4153762;28;20056;-67
2022/05/22 04:48:24;;;;;;;8.02;4.00;;;29.50;99.90;;;;;;4144125;28;20033;-67
2022/05/22 04:50:38;;;;;;;10.10;4.90;;;29.60;99.90;;;;;;4145121;28;20041;-67
2022/05/22 04:53:02;;;;;;;8.55;4.82;;;29.60;99.90;;;;;;4138717;28;20047;-68
2022/05/22 04:55:22;;;;;;;7.85;4.68;;;29.60;99.90;;;;;;4143293;28;20551;-67
2022/05/22 04:57:27;;;;;;;9.25;4.43;;;29.60;99.90;;;;;;4144334;28;20046;-68
2022/05/22 04:59:32;;;;;;;7.72;4.32;;;29.50;99.90;;;;;;4144441;28;20365;-68
2022/05/22 05:01:36;;;;;;;9.07;3.88;;;29.50;99.90;;;;;;4160440;28;20053;-68
2022/05/22 05:03:41;;;;;;;7.05;3.88;;;29.60;99.90;;;;;;4145403;28;20034;-68
2022/05/22 05:05:57;;;;;;;8.10;3.85;;;29.70;99.90;;;;;;4144162;28;20417;-69
2022/05/22 05:08:05;;;;;;;12.25;4.07;;;29.80;99.90;;;;;;4160982;28;20046;-69
2022/05/22 05:10:22;;;;;;;9.95;4.18;;;29.90;99.90;;;;;;4145057;28;20129;-69
2022/05/22 05:12:39;;;;;;;9.15;4.25;;;29.90;99.90;;;;;;4147486;28;20045;-69
2022/05/22 05:15:08;;;;;;;9.90;4.43;;;30.00;99.90;;;;;;4146423;28;20050;-66
2022/05/22 05:17:16;;;;;;;9.77;4.05;;;30.00;99.90;;;;;;4130577;28;20045;-69
2022/05/22 05:19:22;;;;;;;6.65;3.72;;;30.00;99.90;;;;;;4146207;28;20056;-69
2022/05/22 05:21:28;;;;;;;7.40;3.85;;;29.90;99.90;;;;;;4145837;28;20081;-68
2022/05/22 05:23:36;;;;;;;12.20;4.63;;;29.90;99.90;;;;;;4146041;28;20054;-69
2022/05/22 05:26:02;;;;;;;8.57;4.10;;;29.90;99.90;;;;;;4146688;28;20103;-68
2022/05/22 05:28:07;;;;;;;7.47;3.78;;;29.80;99.90;;;;;;4145718;28;20045;-69
2022/05/22 05:30:13;;;;;;;8.75;3.83;;;29.70;99.90;;;;;;4161764;28;20439;-68
2022/05/22 05:32:22;;;;;;;9.55;4.18;;;29.60;99.90;;;;;;4146120;28;20398;-68
2022/05/22 05:34:27;;;;;;;10.02;3.70;;;29.50;99.90;;;;;;4145819;28;20104;-69
2022/05/22 05:36:40;;;;;;;12.40;3.72;;;29.40;99.90;;;;;;4145393;28;20116;-68
2022/05/22 05:39:04;;;;;;;6.68;3.53;;;29.20;99.90;;;;;;4146567;28;20108;-68
2022/05/22 05:41:21;;;;;;;9.48;4.10;;;29.10;99.90;;;;;;4147406;28;20107;-69
2022/05/22 05:43:26;;;;;;;12.88;4.05;;;29.10;99.90;;;;;;4144628;28;20052;-68
2022/05/22 05:45:31;;;;;;;6.47;3.97;;;29.10;99.90;;;;;;4142870;28;20057;-66
2022/05/22 05:47:37;;;;;;;8.00;3.75;;;29.00;99.90;;;;;;4146949;28;20050;-67
2022/05/22 05:49:54;;;;;;;11.75;4.13;;;29.00;99.90;;;;;;4143028;28;20129;-69
2022/05/22 05:52:09;;;;;;;8.52;3.95;;;29.00;99.90;;;;;;4144380;28;20042;-69
2022/05/22 05:54:35;;;;;;;12.52;4.57;;;29.00;99.90;;;;;;4145228;28;20045;-69
2022/05/22 05:56:59;;;;;;;15.50;4.20;;;29.00;99.90;;;;;;4140153;28;20910;-69
2022/05/22 05:59:16;;;;;;;7.30;4.40;;;29.00;99.90;;;;;;4137983;28;20050;-69
2022/05/22 06:01:27;;;;;;;10.88;4.22;;;29.00;99.90;;;;;;4158939;28;20045;-69
2022/05/22 06:03:32;;;;;;;8.15;3.95;;;29.10;99.90;;;;;;4144437;28;20048;-67
2022/05/22 06:05:39;;;;;;;9.70;4.40;;;29.10;99.90;;;;;;4139336;28;20058;-67
2022/05/22 06:07:53;;;;;;;8.45;4.10;;;29.10;99.90;;;;;;4136970;28;20053;-68
2022/05/22 06:10:03;;;;;;;7.80;3.83;;;29.10;99.90;;;;;;4139278;28;20073;-68
2022/05/22 06:12:25;;;;;;;6.90;3.92;;;29.20;99.90;;;;;;4136791;28;20053;-68
2022/05/22 06:14:38;;;;;;;7.63;3.75;;;29.20;99.90;;;;;;4137783;28;20049;-67
2022/05/22 06:16:43;;;;;;;6.38;4.00;;;29.20;99.90;;;;;;4137937;28;20104;-68
2022/05/22 06:18:49;;;;;;;9.25;4.03;;;29.20;99.90;;;;;;4139181;28;20056;-68
2022/05/22 06:20:55;;;;;;;8.30;4.07;;;29.20;99.90;;;;;;4137924;28;20141;-68
2022/05/22 06:23:01;;;;;;;9.80;3.70;;;29.30;99.90;;;;;;4138211;28;20737;-68
2022/05/22 06:25:19;;;;;;;9.00;4.03;;;29.20;99.90;;;;;;4139046;28;20049;-68
2022/05/22 06:27:29;;;;;;;9.18;4.18;;;29.30;99.90;;;;;;4138601;28;20044;-68
2022/05/22 06:29:37;;;;;;;9.38;3.78;;;29.40;99.90;;;;;;4140969;28;20041;-68
2022/05/22 06:31:59;;;;;;;7.82;4.32;;;29.50;99.90;;;;;;4136736;28;20048;-69
2022/05/22 06:34:22;;;;;;;10.45;4.40;;;29.70;99.90;;;;;;4129734;28;20060;-68
2022/05/22 06:36:40;;;;;;;10.40;4.07;;;29.80;99.90;;;;;;4137621;28;20156;-69
2022/05/22 06:41:32;;;;;;;9.18;4.25;;;30.10;99.90;;;;;;4137460;28;20397;-68
2022/05/22 06:43:54;;;;;;;7.60;4.10;;;30.10;99.90;;;;;;4138984;28;20056;-68
2022/05/22 06:46:25;;;;;;;11.15;4.07;;;30.20;99.90;;;;;;4139664;28;20038;-68
2022/05/22 06:48:49;;;;;;;7.57;4.18;;;30.20;99.90;;;;;;4138640;28;21874;-68
2022/05/22 06:51:06;;;;;;;8.55;4.13;;;30.20;99.90;;;;;;4137989;28;20060;-68
2022/05/22 06:53:24;;;;;;;9.45;4.45;;;30.20;99.90;;;;;;4138433;28;20076;-69
2022/05/22 06:55:40;;;;;;;7.53;4.15;;;30.20;99.90;;;;;;4137703;28;20042;-69
2022/05/22 06:57:58;;;;;;;10.70;4.38;;;30.30;99.90;;;;;;4138798;28;20050;-69
2022/05/22 07:00:18;;;;;;;9.40;4.15;;;30.30;99.90;;;;;;4136704;28;20169;-69
2022/05/22 07:02:27;;;;;;;11.25;4.20;;;30.30;99.90;;;;;;4137908;28;20384;-69
2022/05/22 07:04:51;;;;;;;10.65;4.85;;;30.40;99.90;;;;;;4137427;28;20347;-69
2022/05/22 07:07:19;;;;;;;12.02;5.53;;;30.50;99.90;;;;;;4139096;28;20045;-71
2022/05/22 07:09:36;;;;;;;10.57;4.43;;;30.50;99.90;;;;;;4139576;28;20050;-69
2022/05/22 07:12:06;;;;;;;11.38;4.18;;;30.50;99.90;;;;;;4140038;28;20050;-70
2022/05/22 07:14:40;;;;;;;12.00;5.07;;;30.60;99.90;;;;;;4140624;28;20076;-69
2022/05/22 07:17:13;;;;;;;8.25;4.70;;;30.60;99.90;;;;;;4139289;28;20534;-70
2022/05/22 07:19:34;;;;;;;8.48;5.22;;;30.60;99.90;;;;;;4140130;28;20096;-69
2022/05/22 07:21:54;;;;;;;10.23;5.07;;;30.60;99.90;;;;;;4139566;28;20504;-70
2022/05/22 07:24:18;;;;;;;10.75;4.80;;;30.70;99.90;;;;;;4141521;28;20507;-69
2022/05/22 07:26:42;;;;;;;8.90;4.63;;;30.60;99.90;;;;;;4136902;28;20088;-69
2022/05/22 07:29:07;;;;;;;9.30;4.47;;;30.60;99.90;;;;;;4138379;28;20038;-69
2022/05/22 07:31:26;;;;;;;8.23;4.00;;;30.40;99.90;;;;;;4140501;28;20046;-70
2022/05/22 07:33:43;;;;;;;12.98;4.35;;;30.40;99.90;;;;;;4140143;28;20045;-69
2022/05/22 07:36:04;;;;;;;8.23;4.53;;;30.30;99.90;;;;;;4139870;28;20042;-68
2022/05/22 07:38:18;;;;;;;9.40;4.72;;;30.30;99.90;;;;;;4140818;28;20364;-68
2022/05/22 07:40:35;;;;;;;8.82;4.28;;;30.30;99.90;;;;;;4141052;28;20049;-67
2022/05/22 07:43:00;;;;;;;9.93;4.38;;;30.30;99.90;;;;;;4138000;28;20041;-68
2022/05/22 07:45:17;;;;;;;9.73;4.97;;;30.30;99.90;;;;;;4140616;28;20042;-68
2022/05/22 07:47:33;;;;;;;10.43;5.72;;;30.40;99.90;;;;;;4146704;28;20049;-67
2022/05/22 07:52:28;;;;;;;7.90;5.05;;;30.60;99.90;;;;;;4140588;28;20061;-68
2022/05/22 07:54:52;;;;;;;9.43;4.70;;;30.70;99.90;;;;;;4138194;28;20554;-68
2022/05/22 07:57:10;;;;;;;10.05;4.40;;;30.80;99.90;;;;;;4139221;28;20396;-68
2022/05/22 07:59:27;;;;;;;12.93;5.72;;;30.90;99.90;;;;;;4140641;28;20073;-67
2022/05/22 08:01:51;;;;;;;14.95;5.38;;;30.90;99.90;;;;;;4143704;28;20096;-68
2022/05/22 08:04:09;;;;;;;10.60;5.70;;;30.90;99.90;;;;;;4140842;28;20058;-67
2022/05/22 08:06:26;;;;;;;9.65;4.82;;;30.80;99.90;;;;;;4141009;28;20059;-67
2022/05/22 08:08:34;;;;;;;12.82;4.72;;;30.80;99.90;;;;;;4138127;28;20132;-68
2022/05/22 08:10:53;;;;;;;11.43;5.47;;;30.90;99.90;;;;;;4142435;28;20045;-67
2022/05/22 08:13:04;;;;;;;14.30;7.15;;;31.00;99.90;;;;;;4140002;28;20062;-67
2022/05/22 08:15:10;;;;;;;18.17;7.93;;;31.00;99.90;;;;;;4156953;28;20108;-67
2022/05/22 08:17:15;;;;;;;13.07;7.25;;;31.10;99.90;;;;;;4145999;28;20586;-68
2022/05/22 08:19:21;;;;;;;12.77;7.25;;;31.10;99.90;;;;;;4156070;28;20071;-69
2022/05/22 08:21:45;;;;;;;14.43;7.53;;;31.10;99.90;;;;;;4155253;28;20048;-68
2022/05/22 08:23:50;;;;;;;14.10;7.07;;;31.10;99.90;;;;;;4139954;28;20556;-68
2022/05/22 08:25:58;;;;;;;10.40;5.20;;;31.20;99.90;;;;;;4140110;28;20054;-68
2022/05/22 08:28:04;;;;;;;8.98;5.18;;;31.20;99.90;;;;;;4139070;28;22139;-69
2022/05/22 08:30:11;;;;;;;8.88;4.60;;;31.10;99.90;;;;;;4138680;28;20053;-68
2022/05/22 08:32:16;;;;;;;12.00;4.88;;;31.20;99.90;;;;;;4138358;28;20054;-68
2022/05/22 08:34:21;;;;;;;10.77;4.95;;;31.20;99.90;;;;;;4137154;28;20061;-68
2022/05/22 08:36:26;;;;;;;6.45;4.07;;;31.20;99.90;;;;;;4136828;28;20037;-68
2022/05/22 08:38:31;;;;;;;10.50;4.15;;;31.20;99.90;;;;;;4139286;28;20045;-68
2022/05/22 08:40:57;;;;;;;10.02;5.18;;;31.20;99.90;;;;;;4138578;28;20042;-68
2022/05/22 08:43:16;;;;;;;14.07;6.03;;;31.10;99.90;;;;;;4140883;28;20068;-67
2022/05/22 08:45:46;;;;;;;14.82;6.53;;;31.00;99.90;;;;;;4134493;28;20042;-68
2022/05/22 08:48:23;;;;;;;12.98;5.30;;;30.90;99.90;;;;;;4139932;28;20073;-68
2022/05/22 08:50:29;;;;;;;16.02;4.72;;;30.80;99.90;;;;;;4139847;28;20040;-69
2022/05/22 08:52:52;;;;;;;12.40;4.80;;;30.80;99.90;;;;;;4141289;28;20062;-69
2022/05/22 08:55:16;;;;;;;9.52;4.20;;;30.70;99.90;;;;;;4140635;28;20413;-68
2022/05/22 09:00:07;;;;;;;9.65;4.03;;;30.80;99.90;;;;;;4139755;28;20041;-68
2022/05/22 09:02:35;;;;;;;7.05;4.38;;;30.70;99.90;;;;;;4140810;28;20555;-68
2022/05/22 09:05:03;;;;;;;10.60;4.30;;;30.70;99.90;;;;;;4140008;28;20472;-68
2022/05/22 09:07:21;;;;;;;8.07;4.15;;;30.70;99.90;;;;;;4140864;28;20046;-68
2022/05/22 09:09:26;;;;;;;10.73;4.90;;;30.70;99.90;;;;;;4140915;28;20046;-68
2022/05/22 09:12:05;;;;;;;8.90;4.50;;;30.70;99.90;;;;;;4139220;28;20096;-68
2022/05/22 09:14:12;;;;;;;11.85;4.57;;;30.70;99.90;;;;;;4139136;28;20050;-68
2022/05/22 09:16:39;;;;;;;9.20;4.97;;;30.70;99.90;;;;;;4138977;28;20037;-68
2022/05/22 09:19:08;;;;;;;10.02;4.13;;;30.70;99.90;;;;;;4138059;28;20049;-68
2022/05/22 09:21:36;;;;;;;9.38;4.05;;;30.70;99.90;;;;;;4137184;28;20046;-68
2022/05/22 09:24:12;;;;;;;9.10;4.00;;;30.80;99.90;;;;;;4156991;28;20064;-68
2022/05/22 09:26:40;;;;;;;8.23;3.85;;;30.80;99.90;;;;;;4122831;28;20065;-66
2022/05/22 09:29:17;;;;;;;8.57;4.25;;;30.80;99.90;;;;;;4131666;28;20049;-67
2022/05/22 09:32:03;;;;;;;7.85;4.22;;;30.80;99.90;;;;;;4139691;28;20045;-68
2022/05/22 09:34:40;;;;;;;7.07;4.32;;;30.70;99.90;;;;;;4138547;28;20509;-68
2022/05/22 09:37:10;;;;;;;9.98;5.43;;;30.60;99.90;;;;;;4138614;28;20069;-69
2022/05/22 09:39:24;;;;;;;9.15;4.30;;;30.60;99.90;;;;;;4137386;28;20152;-68
2022/05/22 09:41:54;;;;;;;9.27;4.85;;;30.60;99.90;;;;;;4140265;28;20153;-67
2022/05/22 09:44:21;;;;;;;8.23;4.05;;;30.60;99.90;;;;;;4139718;28;20081;-67
2022/05/22 09:47:11;;;;;;;8.00;4.50;;;30.50;99.90;;;;;;4139952;28;20096;-67
2022/05/22 09:49:38;;;;;;;10.57;4.32;;;30.60;99.90;;;;;;4138539;28;20058;-68
2022/05/22 09:51:57;;;;;;;9.32;4.07;;;30.50;99.90;;;;;;4139670;28;20042;-67
2022/05/22 09:54:28;;;;;;;9.43;4.50;;;30.50;99.90;;;;;;4147355;28;20069;-68
2022/05/22 09:57:19;;;;;;;8.55;4.55;;;30.40;99.90;;;;;;4155991;28;20085;-68
2022/05/22 09:59:55;;;;;;;7.88;4.65;;;30.50;99.90;;;;;;4144884;28;20140;-68
2022/05/22 10:02:01;;;;;;;6.35;4.32;;;30.40;99.90;;;;;;4139989;28;20053;-68
2022/05/22 10:04:31;;;;;;;9.70;4.78;;;30.50;99.90;;;;;;4146195;28;20057;-68
2022/05/22 10:07:09;;;;;;;10.52;4.40;;;30.50;99.90;;;;;;4144503;28;20058;-68
2022/05/22 10:09:36;;;;;;;10.73;4.70;;;30.50;99.90;;;;;;4146560;28;20057;-67
2022/05/22 10:12:04;;;;;;;7.80;4.22;;;30.50;99.90;;;;;;4155956;28;20435;-69
2022/05/22 10:14:54;;;;;;;8.45;4.10;;;30.50;99.90;;;;;;4146161;28;20838;-69
2022/05/22 10:17:15;;;;;;;8.82;3.80;;;30.50;99.90;;;;;;4138482;28;20053;-68
2022/05/22 10:19:52;;;;;;;7.78;3.65;;;30.60;99.90;;;;;;4138910;28;20053;-69
2022/05/22 10:22:29;;;;;;;10.90;3.90;;;30.70;99.90;;;;;;4140019;28;20056;-69
2022/05/22 10:25:08;;;;;;;8.45;3.95;;;30.70;99.90;;;;;;4139767;28;20060;-70
2022/05/22 10:27:36;;;;;;;6.70;4.10;;;30.60;99.90;;;;;;4141341;28;20402;-70
2022/05/22 10:29:54;;;;;;;7.20;3.72;;;30.60;99.90;;;;;;4140108;28;20077;-70
2022/05/22 10:32:04;;;;;;;11.40;4.18;;;30.60;99.90;;;;;;4137607;28;20065;-69
2022/05/22 10:34:33;;;;;;;10.52;4.40;;;30.50;99.90;;;;;;4137691;28;20137;-70
2022/05/22 10:36:41;;;;;;;11.75;4.22;;;30.40;99.90;;;;;;4138785;28;20042;-69
2022/05/22 10:39:00;;;;;;;9.55;4.40;;;30.40;99.90;;;;;;4139451;28;20057;-69
2022/05/22 10:43:45;;;;;;;7.88;4.25;;;30.20;99.90;;;;;;4138486;28;20053;-69
2022/05/22 10:45:50;;;;;;;9.50;4.30;;;30.20;99.90;;;;;;4137772;28;20050;-69
2022/05/22 10:48:09;;;;;;;9.77;4.80;;;30.20;99.90;;;;;;4135489;28;20042;-68
2022/05/22 10:50:25;;;;;;;12.68;5.05;;;30.20;99.90;;;;;;4137754;28;20049;-68
2022/05/22 10:52:32;;;;;;;10.65;5.10;;;30.20;99.90;;;;;;4130503;28;20053;-67
2022/05/22 10:54:47;;;;;;;15.45;4.82;;;30.10;99.90;;;;;;4142745;28;20069;-68
2022/05/22 10:56:52;;;;;;;10.10;4.72;;;30.10;99.90;;;;;;4157037;28;20049;-68
2022/05/22 10:59:02;;;;;;;15.18;4.88;;;30.00;99.90;;;;;;4152301;28;20096;-68
2022/05/22 11:01:17;;;;;;;13.40;5.50;;;29.90;99.90;;;;;;4139589;28;20129;-67
2022/05/22 11:03:26;;;;;;;11.25;5.30;;;30.00;99.90;;;;;;4140219;28;20049;-68
2022/05/22 11:05:31;;;;;;;13.80;5.60;;;29.90;99.90;;;;;;4139317;28;20100;-67
2022/05/22 11:07:45;;;;;;;11.55;4.93;;;29.90;99.90;;;;;;4140878;28;20148;-68
2022/05/22 11:09:51;;;;;;;11.77;5.28;;;29.80;99.90;;;;;;4142070;28;20734;-69
2022/05/22 11:12:09;;;;;;;11.48;5.00;;;29.80;99.90;;;;;;4141328;28;20046;-68
2022/05/22 11:14:21;;;;;;;13.18;5.78;;;29.80;99.90;;;;;;4139256;28;20504;-69
2022/05/22 11:16:28;;;;;;;9.27;5.10;;;29.80;99.90;;;;;;4141588;28;20120;-68
2022/05/22 11:18:33;;;;;;;11.38;5.63;;;29.80;99.90;;;;;;4143408;28;20046;-68
2022/05/22 11:20:58;;;;;;;12.43;5.85;;;29.80;99.90;;;;;;4140937;28;20042;-68
2022/05/22 11:23:12;;;;;;;15.40;5.75;;;29.70;99.90;;;;;;4141070;28;20060;-67
2022/05/22 11:25:48;;;;;;;12.25;5.78;;;29.70;99.90;;;;;;4138628;28;20053;-68
2022/05/22 11:28:31;;;;;;;14.68;6.85;;;29.70;99.90;;;;;;4143010;28;20049;-68
2022/05/22 11:30:52;;;;;;;9.73;5.78;;;29.70;99.90;;;;;;4150781;28;20041;-68
2022/05/22 11:33:14;;;;;;;12.18;6.30;;;29.60;99.90;;;;;;4160353;28;20049;-68
2022/05/22 11:35:38;;;;;;;11.98;6.15;;;29.60;99.90;;;;;;4157932;28;20057;-67
2022/05/22 11:38:10;;;;;;;11.00;5.53;;;29.60;99.90;;;;;;4155974;28;20455;-69
2022/05/22 11:40:32;;;;;;;9.00;5.30;;;29.70;99.90;;;;;;4140014;28;20060;-68
2022/05/22 11:42:38;;;;;;;9.43;5.15;;;29.60;99.90;;;;;;4137257;28;20045;-68
2022/05/22 11:45:06;;;;;;;13.27;6.20;;;29.60;99.90;;;;;;4139353;28;20088;-68
2022/05/22 11:47:31;;;;;;;11.52;5.63;;;29.60;99.90;;;;;;4138121;28;20109;-68
2022/05/22 11:50:08;;;;;;;12.82;7.45;;;29.50;99.90;;;;;;4165555;28;20060;-68
2022/05/22 11:52:54;;;;;;;10.60;6.05;;;29.50;99.90;;;;;;4141062;28;20046;-68
2022/05/22 11:55:15;;;;;;;12.25;5.97;;;29.50;99.90;;;;;;4135947;28;20042;-68
2022/05/22 11:57:42;;;;;;;16.83;8.70;;;29.30;99.90;;;;;;4138398;28;20073;-68
2022/05/22 12:00:14;;;;;;;25.77;17.00;;;29.40;99.90;;;;;;4139662;28;20642;-68
2022/05/22 12:02:50;;;;;;;16.80;11.88;;;29.30;99.90;;;;;;4138691;28;20676;-68
2022/05/22 12:05:29;;;;;;;15.27;9.05;;;29.30;99.90;;;;;;4137441;28;20108;-68
2022/05/22 12:08:01;;;;;;;14.20;9.18;;;29.30;99.90;;;;;;4133623;28;20046;-68
2022/05/22 12:10:23;;;;;;;22.05;12.27;;;29.30;99.90;;;;;;4144075;28;20060;-68
2022/05/22 12:12:50;;;;;;;18.05;10.68;;;29.30;99.90;;;;;;4142693;28;20041;-69
2022/05/22 12:15:03;;;;;;;14.02;7.82;;;29.30;99.90;;;;;;4129035;28;20156;-69
2022/05/22 12:17:24;;;;;;;15.98;7.45;;;29.20;99.90;;;;;;4136979;28;20390;-68
2022/05/22 12:20:01;;;;;;;11.70;7.20;;;29.20;99.90;;;;;;4138983;28;20048;-68
2022/05/22 12:22:16;;;;;;;14.63;7.50;;;29.20;99.90;;;;;;4136088;28;20657;-67
2022/05/22 12:24:36;;;;;;;15.13;6.90;;;29.20;99.90;;;;;;4138350;28;20052;-67
2022/05/22 12:26:41;;;;;;;12.63;6.38;;;29.20;99.90;;;;;;4136529;28;20055;-67
2022/05/22 12:29:03;;;;;;;14.07;6.78;;;29.10;99.90;;;;;;4137281;28;20113;-67
2022/05/22 12:31:21;;;;;;;11.77;5.90;;;29.10;99.90;;;;;;4134760;28;20041;-68
2022/05/22 12:33:28;;;;;;;12.68;6.40;;;29.00;99.90;;;;;;4136477;28;20046;-69
2022/05/22 12:35:33;;;;;;;11.65;5.90;;;29.10;99.90;;;;;;4138749;28;20054;-69
2022/05/22 12:37:49;;;;;;;14.02;6.60;;;29.10;99.90;;;;;;4138953;28;20049;-68
2022/05/22 12:40:11;;;;;;;13.93;6.47;;;29.00;99.90;;;;;;4138055;28;20839;-69
2022/05/22 12:42:20;;;;;;;13.07;7.22;;;29.00;99.90;;;;;;4138078;28;20048;-70
2022/05/22 12:44:28;;;;;;;9.75;5.90;;;28.90;99.90;;;;;;4137726;28;20042;-69
2022/05/22 12:46:33;;;;;;;12.30;6.18;;;29.00;99.90;;;;;;4138485;28;20041;-69
2022/05/22 12:48:43;;;;;;;11.82;5.88;;;29.00;99.90;;;;;;4139704;28;20041;-69
2022/05/22 12:50:49;;;;;;;14.60;7.07;;;28.90;99.90;;;;;;4137821;28;20037;-69
2022/05/22 12:52:54;;;;;;;14.60;7.35;;;28.90;99.90;;;;;;4140390;28;20097;-70
2022/05/22 12:55:30;;;;;;;14.85;6.95;;;28.90;99.90;;;;;;4136503;28;20057;-70
2022/05/22 12:57:36;;;;;;;14.32;6.65;;;28.90;99.90;;;;;;4140190;28;20068;-70
2022/05/22 12:59:57;;;;;;;13.82;6.22;;;28.90;99.90;;;;;;4140683;28;20578;-70